createdAt,value
2022-10-24T00:00:50.731Z,39.63
2022-10-24T00:03:17.095Z,36.88
2022-10-24T00:05:47.626Z,48.28
2022-10-24T00:08:14.457Z,40.78
2022-10-24T00:10:42.318Z,33.90
2022-10-24T00:13:08.614Z,45.45
2022-10-24T00:15:34.889Z,52.95
2022-10-24T00:18:01.206Z,32.50
2022-10-24T00:20:27.586Z,39.00
2022-10-24T00:22:53.864Z,53.08
2022-10-24T00:25:20.250Z,46.33
2022-10-24T00:27:46.574Z,44.60
2022-10-24T00:30:12.956Z,33.08
2022-10-24T00:32:39.278Z,47.90
2022-10-24T00:35:05.797Z,48.05
2022-10-24T00:37:32.076Z,40.75
2022-10-24T00:39:58.346Z,41.90
2022-10-24T00:42:24.636Z,40.58
2022-10-24T00:44:52.888Z,34.17
2022-10-24T00:47:20.238Z,35.53
2022-10-24T00:49:52.610Z,36.97
2022-10-24T00:52:21.994Z,42.30
2022-10-24T00:54:49.121Z,35.22
2022-10-24T00:57:19.906Z,35.83
2022-10-24T00:59:47.496Z,41.88
2022-10-24T01:04:41.085Z,38.15
2022-10-24T01:07:31.087Z,35.65
2022-10-24T01:10:03.485Z,44.00
2022-10-24T01:12:59.741Z,40.28
2022-10-24T01:15:31.191Z,35.15
2022-10-24T01:18:05.784Z,35.28
2022-10-24T01:20:32.043Z,32.13
2022-10-24T01:23:09.528Z,31.00
2022-10-24T01:25:42.125Z,29.13
2022-10-24T01:28:14.961Z,30.75
2022-10-24T01:30:47.283Z,33.88
2022-10-24T01:33:20.517Z,37.65
2022-10-24T01:35:49.774Z,40.53
2022-10-24T01:38:16.043Z,41.33
2022-10-24T01:40:45.383Z,34.90
2022-10-24T01:43:13.113Z,32.88
2022-10-24T01:45:41.848Z,34.17
2022-10-24T01:48:10.650Z,39.58
2022-10-24T01:50:38.145Z,38.28
2022-10-24T01:53:04.952Z,32.78
2022-10-24T01:55:32.492Z,38.47
2022-10-24T01:57:58.840Z,39.47
2022-10-24T02:00:25.363Z,32.25
2022-10-24T02:02:56.708Z,30.80
2022-10-24T02:05:25.577Z,37.63
2022-10-24T02:07:54.303Z,37.20
2022-10-24T02:10:22.561Z,38.80
2022-10-24T02:12:52.465Z,37.88
2022-10-24T02:15:24.398Z,35.95
2022-10-24T02:17:51.078Z,31.10
2022-10-24T02:20:17.562Z,28.95
2022-10-24T02:22:54.368Z,27.35
2022-10-24T02:25:26.249Z,40.08
2022-10-24T02:28:00.968Z,37.83
2022-10-24T02:30:28.050Z,38.67
2022-10-24T02:32:58.369Z,34.33
2022-10-24T02:35:29.436Z,41.85
2022-10-24T02:38:17.840Z,39.83
2022-10-24T02:40:44.381Z,30.80
2022-10-24T02:43:11.629Z,29.73
2022-10-24T02:45:38.823Z,42.17
2022-10-24T02:48:06.757Z,41.65
2022-10-24T02:50:33.101Z,41.85
2022-10-24T02:52:59.592Z,27.60
2022-10-24T02:55:25.895Z,36.55
2022-10-24T02:57:52.161Z,42.45
2022-10-24T03:00:18.701Z,41.63
2022-10-24T03:02:45.363Z,33.10
2022-10-24T03:05:11.775Z,29.55
2022-10-24T03:07:38.046Z,34.25
2022-10-24T03:10:04.477Z,40.78
2022-10-24T03:12:30.816Z,35.50
2022-10-24T03:14:57.125Z,30.27
2022-10-24T03:17:23.422Z,36.78
2022-10-24T03:19:49.734Z,30.38
2022-10-24T03:22:16.013Z,36.92
2022-10-24T03:24:44.607Z,42.65
2022-10-24T03:27:21.149Z,41.72
2022-10-24T03:29:47.466Z,39.17
2022-10-24T03:32:13.902Z,40.83
2022-10-24T03:34:40.544Z,33.80
2022-10-24T03:37:06.818Z,33.55
2022-10-24T03:39:33.129Z,37.17
2022-10-24T03:41:59.504Z,29.58
2022-10-24T03:44:25.797Z,37.25
2022-10-24T03:46:52.059Z,38.15
2022-10-24T03:49:18.470Z,33.85
2022-10-24T03:51:44.733Z,31.08
2022-10-24T03:54:11.691Z,50.70
2022-10-24T03:56:37.986Z,39.35
2022-10-24T03:59:04.261Z,42.45
2022-10-24T04:01:30.577Z,36.58
2022-10-24T04:03:56.949Z,40.20
2022-10-24T04:06:23.252Z,39.10
2022-10-24T04:08:49.508Z,34.17
2022-10-24T04:11:15.797Z,36.15
2022-10-24T04:13:42.081Z,29.15
2022-10-24T04:16:08.613Z,38.20
2022-10-24T04:18:34.930Z,33.00
2022-10-24T04:21:01.512Z,37.80
2022-10-24T04:23:27.805Z,43.63
2022-10-24T04:25:54.076Z,36.10
2022-10-24T04:28:20.399Z,44.53
2022-10-24T04:30:46.651Z,38.67
2022-10-24T04:33:12.986Z,37.60
2022-10-24T04:35:39.358Z,41.42
2022-10-24T04:38:05.676Z,32.00
2022-10-24T04:40:31.959Z,44.53
2022-10-24T04:42:58.219Z,31.02
2022-10-24T04:45:24.502Z,37.63
2022-10-24T04:47:50.799Z,40.70
2022-10-24T04:50:17.172Z,32.28
2022-10-24T04:52:43.514Z,38.03
2022-10-24T04:55:09.790Z,34.20
2022-10-24T04:57:36.063Z,35.58
2022-10-24T05:00:02.560Z,38.40
2022-10-24T05:02:28.900Z,53.58
2022-10-24T05:04:55.270Z,38.58
2022-10-24T05:07:21.668Z,37.88
2022-10-24T05:09:47.941Z,44.55
2022-10-24T05:12:14.304Z,43.78
2022-10-24T05:14:40.680Z,46.03
2022-10-24T05:17:06.974Z,45.40
2022-10-24T05:19:33.264Z,41.85
2022-10-24T05:21:59.522Z,48.33
2022-10-24T05:24:25.814Z,42.28
2022-10-24T05:26:52.078Z,44.25
2022-10-24T05:29:18.374Z,44.15
2022-10-24T05:31:44.655Z,45.25
2022-10-24T05:34:10.978Z,45.60
2022-10-24T05:36:37.263Z,46.20
2022-10-24T05:39:03.584Z,49.42
2022-10-24T05:41:29.857Z,41.88
2022-10-24T05:43:56.157Z,45.50
2022-10-24T05:46:22.415Z,34.25
2022-10-24T05:48:48.737Z,48.03
2022-10-24T05:51:15.137Z,46.90
2022-10-24T05:53:41.405Z,43.55
2022-10-24T05:56:08.207Z,43.10
2022-10-24T05:58:34.474Z,44.63
2022-10-24T06:01:01.075Z,34.47
2022-10-24T06:03:27.430Z,31.33
2022-10-24T06:05:53.759Z,38.33
2022-10-24T06:08:20.053Z,38.97
2022-10-24T06:10:47.703Z,38.38
2022-10-24T06:13:14.324Z,38.60
2022-10-24T06:15:41.413Z,44.05
2022-10-24T06:18:07.947Z,42.58
2022-10-24T06:20:34.324Z,34.67
2022-10-24T06:23:00.602Z,31.60
2022-10-24T06:25:26.884Z,39.70
2022-10-24T06:27:53.160Z,37.70
2022-10-24T06:30:19.529Z,38.80
2022-10-24T06:32:46.001Z,29.35
2022-10-24T06:35:14.625Z,28.15
2022-10-24T06:37:42.999Z,35.45
2022-10-24T06:40:12.125Z,30.85
2022-10-24T06:42:38.404Z,31.85
2022-10-24T06:45:04.914Z,33.72
2022-10-24T06:47:31.796Z,38.58
2022-10-24T06:49:58.087Z,36.28
2022-10-24T06:52:24.497Z,31.75
2022-10-24T06:54:50.779Z,27.67
2022-10-24T06:57:17.997Z,28.20
2022-10-24T06:59:44.972Z,34.63
2022-10-24T07:02:15.057Z,30.52
2022-10-24T07:04:41.669Z,32.90
2022-10-24T07:07:08.053Z,28.20
2022-10-24T07:09:34.422Z,33.15
2022-10-24T07:12:00.712Z,32.63
2022-10-24T07:14:27.080Z,79.00
2022-10-24T07:16:53.417Z,282.20
2022-10-24T07:19:19.677Z,399.70
2022-10-24T07:21:45.932Z,101.63
2022-10-24T07:24:12.484Z,67.68
2022-10-24T07:26:39.395Z,32.30
2022-10-24T07:29:05.662Z,36.55
2022-10-24T07:31:32.920Z,27.48
2022-10-24T07:34:00.353Z,25.45
2022-10-24T07:36:26.933Z,27.40
2022-10-24T07:38:54.577Z,22.70
2022-10-24T07:41:21.048Z,27.42
2022-10-24T07:43:47.419Z,26.63
2022-10-24T07:46:15.882Z,18.83
2022-10-24T07:48:45.169Z,25.42
2022-10-24T07:51:13.451Z,31.02
2022-10-24T07:53:39.904Z,25.35
2022-10-24T07:56:09.326Z,28.85
2022-10-24T07:58:35.964Z,32.58
2022-10-24T08:01:03.374Z,26.50
2022-10-24T08:03:29.700Z,26.02
2022-10-24T08:05:56.987Z,23.15
2022-10-24T08:08:39.119Z,23.45
2022-10-24T08:11:16.252Z,17.75
2022-10-24T08:13:42.622Z,19.98
2022-10-24T08:16:10.527Z,21.52
2022-10-24T08:18:38.857Z,20.58
2022-10-24T08:21:07.329Z,23.35
2022-10-24T08:23:34.248Z,19.25
2022-10-24T08:26:00.538Z,27.90
2022-10-24T08:28:26.879Z,26.92
2022-10-24T08:30:57.317Z,30.02
2022-10-24T08:33:23.863Z,21.77
2022-10-24T08:35:50.189Z,23.27
2022-10-24T08:38:16.638Z,19.85
2022-10-24T08:40:42.905Z,20.13
2022-10-24T08:43:11.009Z,20.15
2022-10-24T08:45:55.216Z,14.98
2022-10-24T08:48:27.117Z,22.23
2022-10-24T08:50:56.332Z,18.27
2022-10-24T08:53:24.026Z,14.07
2022-10-24T08:55:54.526Z,18.15
2022-10-24T08:58:23.876Z,17.65
2022-10-24T09:00:51.452Z,17.65
2022-10-24T09:03:43.641Z,18.17
2022-10-24T09:06:20.308Z,14.10
2022-10-24T09:08:51.204Z,22.35
2022-10-24T09:11:37.772Z,18.45
2022-10-24T09:14:11.731Z,15.50
2022-10-24T09:19:04.276Z,17.58
2022-10-24T09:21:30.593Z,11.98
2022-10-24T09:23:56.912Z,14.23
2022-10-24T09:26:31.083Z,13.13
2022-10-24T09:28:57.771Z,14.10
2022-10-24T09:31:25.909Z,15.70
2022-10-24T09:33:53.661Z,13.82
2022-10-24T09:36:21.066Z,16.70
2022-10-24T09:38:48.967Z,19.75
2022-10-24T09:41:17.069Z,14.77
2022-10-24T09:43:43.392Z,16.15
2022-10-24T09:46:12.157Z,20.30
2022-10-24T09:48:55.344Z,16.20
2022-10-24T09:51:26.431Z,12.00
2022-10-24T09:54:01.175Z,19.10
2022-10-24T09:56:38.717Z,18.83
2022-10-24T09:59:24.023Z,12.15
2022-10-24T10:01:50.474Z,17.38
2022-10-24T10:04:17.834Z,16.20
2022-10-24T10:06:45.478Z,15.45
2022-10-24T10:09:13.239Z,14.80
2022-10-24T10:11:40.851Z,16.25
2022-10-24T10:14:22.981Z,14.98
2022-10-24T10:16:58.456Z,16.13
2022-10-24T10:19:24.929Z,13.60
2022-10-24T10:22:01.959Z,21.05
2022-10-24T10:24:38.831Z,17.27
2022-10-24T10:27:24.301Z,15.80
2022-10-24T10:30:07.062Z,13.07
2022-10-24T10:32:37.438Z,12.02
2022-10-24T10:35:08.344Z,14.00
2022-10-24T10:37:46.286Z,11.23
2022-10-24T10:40:31.687Z,20.77
2022-10-24T10:43:03.985Z,14.27
2022-10-24T10:45:30.256Z,12.20
2022-10-24T10:47:59.550Z,13.52
2022-10-24T10:50:38.100Z,16.00
2022-10-24T10:53:24.646Z,11.45
2022-10-24T10:56:09.860Z,14.23
2022-10-24T10:58:39.220Z,13.90
2022-10-24T11:01:17.499Z,15.63
2022-10-24T11:03:50.536Z,16.60
2022-10-24T11:06:31.409Z,14.55
2022-10-24T11:09:15.836Z,12.10
2022-10-24T11:14:23.603Z,12.00
2022-10-24T11:16:50.654Z,11.40
2022-10-24T11:19:29.817Z,15.07
2022-10-24T11:21:57.344Z,11.43
2022-10-24T11:24:24.006Z,13.65
2022-10-24T11:27:07.619Z,14.60
2022-10-24T11:29:40.711Z,15.10
2022-10-24T11:32:07.123Z,7.67
2022-10-24T11:34:46.815Z,9.75
2022-10-24T11:37:16.307Z,8.20
2022-10-24T11:39:48.131Z,9.00
2022-10-24T11:42:26.661Z,11.48
2022-10-24T11:45:07.520Z,15.63
2022-10-24T11:47:39.936Z,11.77
2022-10-24T11:50:21.822Z,8.50
2022-10-24T11:53:02.529Z,8.32
2022-10-24T11:55:39.931Z,10.80
2022-10-24T11:58:10.375Z,7.53
2022-10-24T12:00:51.957Z,14.38
2022-10-24T12:03:21.264Z,6.47
2022-10-24T12:06:08.742Z,7.68
2022-10-24T12:08:41.053Z,9.48
2022-10-24T12:11:25.803Z,8.55
2022-10-24T12:13:55.192Z,5.05
2022-10-24T12:16:37.036Z,9.05
2022-10-24T12:19:05.477Z,6.45
2022-10-24T12:21:37.379Z,10.63
2022-10-24T12:24:04.001Z,8.07
2022-10-24T12:26:31.430Z,7.65
2022-10-24T12:29:04.913Z,4.32
2022-10-24T12:31:32.980Z,3.13
2022-10-24T12:34:31.952Z,6.75
2022-10-24T12:37:17.117Z,5.82
2022-10-24T12:39:47.273Z,3.00
2022-10-24T12:42:14.063Z,6.15
2022-10-24T12:44:41.200Z,3.35
2022-10-24T12:47:25.830Z,7.13
2022-10-24T12:49:52.223Z,4.68
2022-10-24T12:52:30.686Z,7.05
2022-10-24T12:54:57.677Z,6.20
2022-10-24T12:57:25.803Z,5.97
2022-10-24T13:00:00.101Z,6.55
2022-10-24T13:02:32.434Z,5.00
2022-10-24T13:05:14.139Z,4.00
2022-10-24T13:07:50.775Z,5.43
2022-10-24T13:10:20.556Z,6.60
2022-10-24T13:12:53.028Z,4.95
2022-10-24T13:15:29.424Z,3.30
2022-10-24T13:18:04.619Z,5.45
2022-10-24T13:20:34.628Z,7.45
2022-10-24T13:23:02.272Z,6.10
2022-10-24T13:25:36.096Z,6.22
2022-10-24T13:28:22.149Z,9.45
2022-10-24T13:30:49.915Z,4.03
2022-10-24T13:33:28.585Z,5.18
2022-10-24T13:35:56.556Z,9.35
2022-10-24T13:38:23.874Z,7.60
2022-10-24T13:40:50.190Z,7.68
2022-10-24T13:43:20.010Z,7.25
2022-10-24T13:45:46.289Z,2.45
2022-10-24T13:48:23.636Z,8.05
2022-10-24T13:51:02.513Z,6.43
2022-10-24T13:53:31.444Z,4.45
2022-10-24T13:56:00.290Z,5.10
2022-10-24T13:58:26.681Z,4.18
2022-10-24T14:00:57.510Z,5.65
2022-10-24T14:03:25.726Z,3.20
2022-10-24T14:05:56.785Z,5.70
2022-10-24T14:08:23.093Z,4.25
2022-10-24T14:10:50.113Z,6.28
2022-10-24T14:13:18.428Z,3.38
2022-10-24T14:15:49.805Z,3.05
2022-10-24T14:20:51.781Z,4.32
2022-10-24T14:23:23.656Z,5.57
2022-10-24T14:26:01.616Z,4.72
2022-10-24T14:28:29.811Z,6.90
2022-10-24T14:30:58.009Z,6.57
2022-10-24T14:33:26.028Z,5.85
2022-10-24T14:35:56.645Z,4.90
2022-10-24T14:38:25.504Z,4.88
2022-10-24T14:41:06.250Z,4.88
2022-10-24T14:43:35.031Z,5.72
2022-10-24T14:46:04.681Z,3.47
2022-10-24T14:48:31.013Z,4.18
2022-10-24T14:51:16.189Z,5.38
2022-10-24T14:53:42.910Z,6.72
2022-10-24T14:56:24.161Z,3.83
2022-10-24T14:58:54.948Z,4.90
2022-10-24T15:01:22.200Z,7.88
2022-10-24T15:03:51.613Z,5.63
2022-10-24T15:06:23.311Z,6.78
2022-10-24T15:09:03.838Z,3.65
2022-10-24T15:11:31.728Z,5.55
2022-10-24T15:14:06.703Z,7.65
2022-10-24T15:16:39.252Z,8.07
2022-10-24T15:19:12.418Z,10.15
2022-10-24T15:21:40.132Z,8.88
2022-10-24T15:24:06.855Z,8.75
2022-10-24T15:26:39.199Z,10.45
2022-10-24T15:29:08.533Z,6.57
2022-10-24T15:31:39.218Z,9.43
2022-10-24T15:34:07.605Z,4.00
2022-10-24T15:36:35.749Z,7.22
2022-10-24T15:39:05.090Z,6.32
2022-10-24T15:41:31.628Z,5.93
2022-10-24T15:43:58.132Z,5.90
2022-10-24T15:46:24.676Z,8.25
2022-10-24T15:48:52.045Z,5.95
2022-10-24T15:51:20.270Z,7.57
2022-10-24T15:53:46.649Z,5.15
2022-10-24T15:56:13.045Z,8.10
2022-10-24T15:58:40.398Z,6.13
2022-10-24T16:01:07.712Z,5.55
2022-10-24T16:03:35.635Z,7.68
2022-10-24T16:06:04.327Z,7.32
2022-10-24T16:08:31.066Z,8.07
2022-10-24T16:10:57.353Z,5.80
2022-10-24T16:13:23.792Z,5.93
2022-10-24T16:15:50.121Z,9.45
2022-10-24T16:18:16.644Z,6.53
2022-10-24T16:20:43.053Z,8.00
2022-10-24T16:23:11.342Z,7.07
2022-10-24T16:25:38.092Z,9.80
2022-10-24T16:28:05.441Z,8.23
2022-10-24T16:30:32.445Z,8.32
2022-10-24T16:32:58.801Z,6.32
2022-10-24T16:35:29.404Z,6.18
2022-10-24T16:37:56.460Z,6.93
2022-10-24T16:40:23.485Z,9.10
2022-10-24T16:42:50.365Z,4.82
2022-10-24T16:45:17.237Z,8.00
2022-10-24T16:47:43.613Z,8.70
2022-10-24T16:50:14.582Z,6.72
2022-10-24T16:52:40.880Z,7.63
2022-10-24T16:55:07.820Z,6.10
2022-10-24T16:57:34.214Z,5.97
2022-10-24T17:00:00.626Z,12.48
2022-10-24T17:02:26.918Z,11.15
2022-10-24T17:04:53.266Z,10.32
2022-10-24T17:07:19.533Z,9.15
2022-10-24T17:09:45.809Z,11.13
2022-10-24T17:12:12.056Z,9.57
2022-10-24T17:14:38.738Z,11.60
2022-10-24T17:17:05.567Z,4.47
2022-10-24T17:19:32.012Z,10.32
2022-10-24T17:21:58.421Z,5.85
2022-10-24T17:24:25.548Z,4.97
2022-10-24T17:26:52.325Z,9.82
2022-10-24T17:29:23.433Z,8.48
2022-10-24T17:31:49.789Z,16.13
2022-10-24T17:34:16.366Z,19.33
2022-10-24T17:36:46.078Z,10.90
2022-10-24T17:39:14.308Z,18.40
2022-10-24T17:41:41.266Z,10.82
2022-10-24T17:44:12.367Z,22.58
2022-10-24T17:46:38.880Z,9.95
2022-10-24T17:49:05.179Z,12.98
2022-10-24T17:51:36.949Z,7.35
2022-10-24T17:54:05.760Z,8.18
2022-10-24T17:56:32.275Z,14.30
2022-10-24T17:58:58.568Z,10.50
2022-10-24T18:01:24.988Z,9.80
2022-10-24T18:03:51.400Z,15.52
2022-10-24T18:06:17.657Z,11.27
2022-10-24T18:08:44.061Z,13.93
2022-10-24T18:11:10.749Z,8.45
2022-10-24T18:13:38.231Z,15.75
2022-10-24T18:16:08.712Z,16.35
2022-10-24T18:18:35.065Z,9.55
2022-10-24T18:21:11.906Z,8.57
2022-10-24T18:23:38.505Z,10.82
2022-10-24T18:26:07.960Z,13.02
2022-10-24T18:28:41.777Z,11.18
2022-10-24T18:31:09.179Z,7.28
2022-10-24T18:33:35.445Z,14.27
2022-10-24T18:36:07.904Z,9.43
2022-10-24T18:38:35.144Z,9.95
2022-10-24T18:41:01.700Z,10.52
2022-10-24T18:43:28.032Z,12.60
2022-10-24T18:45:54.736Z,14.48
2022-10-24T18:48:21.234Z,14.07
2022-10-24T18:50:49.297Z,13.15
2022-10-24T18:53:22.191Z,11.02
2022-10-24T18:55:49.118Z,11.15
2022-10-24T18:58:18.915Z,13.85
2022-10-24T19:00:46.027Z,11.32
2022-10-24T19:03:15.295Z,9.63
2022-10-24T19:05:47.892Z,9.32
2022-10-24T19:08:21.882Z,10.25
2022-10-24T19:10:51.513Z,10.18
2022-10-24T19:13:17.838Z,14.05
2022-10-24T19:15:47.224Z,12.65
2022-10-24T19:18:15.325Z,14.90
2022-10-24T19:20:42.296Z,12.30
2022-10-24T19:23:13.157Z,9.68
2022-10-24T19:25:39.519Z,16.50
2022-10-24T19:28:07.564Z,12.32
2022-10-24T19:30:33.860Z,12.93
2022-10-24T19:33:00.124Z,11.18
2022-10-24T19:35:26.440Z,13.60
2022-10-24T19:37:52.722Z,12.90
2022-10-24T19:40:19.107Z,11.77
2022-10-24T19:42:45.401Z,9.73
2022-10-24T19:45:11.661Z,12.38
2022-10-24T19:47:37.960Z,10.10
2022-10-24T19:50:04.533Z,12.88
2022-10-24T19:52:30.815Z,8.15
2022-10-24T19:54:57.237Z,13.85
2022-10-24T19:57:23.593Z,13.48
2022-10-24T19:59:49.961Z,14.85
2022-10-24T20:02:16.297Z,10.38
2022-10-24T20:04:46.683Z,20.55
2022-10-24T20:07:17.299Z,17.50
2022-10-24T20:09:43.650Z,13.15
2022-10-24T20:12:10.111Z,14.77
2022-10-24T20:14:36.389Z,13.68
2022-10-24T20:17:02.705Z,11.93
2022-10-24T20:19:29.069Z,9.90
2022-10-24T20:21:57.820Z,13.77
2022-10-24T20:24:27.485Z,14.30
2022-10-24T20:26:53.882Z,16.27
2022-10-24T20:29:20.195Z,15.98
2022-10-24T20:31:48.060Z,16.05
2022-10-24T20:34:14.553Z,19.30
2022-10-24T20:36:44.316Z,16.63
2022-10-24T20:39:11.229Z,16.55
2022-10-24T20:41:37.793Z,7.35
2022-10-24T20:44:04.600Z,18.98
2022-10-24T20:46:31.301Z,10.95
2022-10-24T20:48:57.629Z,7.82
2022-10-24T20:51:23.942Z,9.50
2022-10-24T20:53:50.290Z,14.80
2022-10-24T20:56:18.117Z,12.02
2022-10-24T20:58:45.513Z,14.98
2022-10-24T21:01:13.219Z,10.00
2022-10-24T21:03:39.718Z,9.88
2022-10-24T21:06:06.453Z,12.93
2022-10-24T21:08:33.853Z,19.83
2022-10-24T21:11:04.618Z,9.40
2022-10-24T21:13:30.897Z,10.90
2022-10-24T21:15:57.351Z,14.45
2022-10-24T21:18:23.711Z,10.82
2022-10-24T21:20:50.001Z,12.50
2022-10-24T21:23:16.344Z,11.90
2022-10-24T21:28:13.944Z,9.63
2022-10-24T21:30:40.289Z,14.07
2022-10-24T21:33:10.507Z,11.98
2022-10-24T21:35:39.867Z,17.23
2022-10-24T21:38:06.204Z,14.88
2022-10-24T21:40:32.537Z,13.68
2022-10-24T21:42:59.789Z,18.17
2022-10-24T21:45:26.076Z,12.95
2022-10-24T21:47:52.347Z,12.90
2022-10-24T21:50:18.674Z,19.85
2022-10-24T21:52:45.221Z,16.85
2022-10-24T21:55:11.665Z,9.77
2022-10-24T21:57:37.973Z,12.18
2022-10-24T22:00:04.988Z,15.48
2022-10-24T22:02:31.639Z,18.52
2022-10-24T22:04:57.968Z,16.08
2022-10-24T22:07:24.576Z,11.35
2022-10-24T22:09:50.859Z,13.27
2022-10-24T22:12:17.153Z,12.27
2022-10-24T22:14:43.418Z,12.43
2022-10-24T22:17:09.730Z,14.52
2022-10-24T22:19:35.992Z,18.70
2022-10-24T22:22:02.271Z,18.65
2022-10-24T22:24:28.536Z,17.60
2022-10-24T22:26:54.816Z,13.73
2022-10-24T22:29:22.085Z,13.35
2022-10-24T22:31:48.729Z,15.77
2022-10-24T22:34:16.125Z,13.52
2022-10-24T22:37:11.083Z,14.35
2022-10-24T22:39:37.671Z,15.93
2022-10-24T22:42:05.851Z,15.95
2022-10-24T22:44:32.324Z,13.20
2022-10-24T22:47:17.557Z,9.25
2022-10-24T22:49:46.857Z,11.50
2022-10-24T22:52:13.334Z,16.42
2022-10-24T22:54:39.791Z,11.50
2022-10-24T22:57:06.413Z,10.57
2022-10-24T22:59:33.317Z,10.73
2022-10-24T23:02:02.467Z,9.98
2022-10-24T23:04:45.269Z,10.88
2022-10-24T23:07:22.544Z,12.15
2022-10-24T23:09:51.396Z,13.45
2022-10-24T23:12:18.658Z,15.80
2022-10-24T23:14:45.588Z,9.55
2022-10-24T23:17:25.691Z,11.38
2022-10-24T23:19:53.128Z,13.77
2022-10-24T23:22:26.877Z,15.88
2022-10-24T23:24:54.664Z,21.83
2022-10-24T23:27:30.219Z,17.73
2022-10-24T23:29:56.660Z,14.25
2022-10-24T23:32:24.721Z,14.15
2022-10-24T23:34:51.700Z,10.48
2022-10-24T23:37:24.189Z,15.82
2022-10-24T23:39:50.717Z,15.55
2022-10-24T23:42:17.111Z,17.30
2022-10-24T23:44:43.589Z,12.38
2022-10-24T23:47:15.721Z,9.45
2022-10-24T23:49:46.889Z,14.63
2022-10-24T23:52:19.124Z,14.73
2022-10-24T23:54:45.544Z,20.40
2022-10-24T23:57:14.681Z,10.15
2022-10-24T23:59:41.100Z,9.40
